Time;durP1;ratioP1;P1;durP2;ratioP2;P2;SDS_P1;SDS_P2;PMS_P1;PMS_P2;Temp;Humidity;BMP_temperature;BMP_pressure;BME280_temperature;BME280_humidity;BME280_pressure;Samples;Min_cycle;Max_cycle;Signal;HPM_P1;HPM_P2
2023/03/25 00:01:31;;;;;;;5.38;3.42;;;16.40;1.00;;;;;;5112916;27;20489;-62
2023/03/25 00:03:59;;;;;;;6.25;3.13;;;16.30;1.00;;;;;;5104212;28;20039;-62
2023/03/25 00:06:27;;;;;;;6.68;2.95;;;16.30;1.00;;;;;;5110627;28;20024;-62
2023/03/25 00:08:53;;;;;;;7.13;3.67;;;16.40;1.00;;;;;;5112914;27;20151;-62
2023/03/25 00:11:19;;;;;;;8.52;3.65;;;16.40;1.00;;;;;;5116676;27;20065;-62
2023/03/25 00:13:46;;;;;;;7.70;3.80;;;16.30;1.00;;;;;;5092250;28;20396;-62
2023/03/25 00:16:13;;;;;;;6.05;3.30;;;16.30;1.00;;;;;;5102344;28;20032;-62
2023/03/25 00:18:38;;;;;;;5.82;2.92;;;16.30;1.00;;;;;;5114793;27;20024;-62
2023/03/25 00:21:14;;;;;;;6.82;3.70;;;16.30;1.00;;;;;;5109648;27;20023;-62
2023/03/25 00:23:41;;;;;;;4.10;3.33;;;16.20;1.00;;;;;;5111086;28;20019;-62
2023/03/25 00:26:07;;;;;;;6.53;3.47;;;16.20;1.00;;;;;;5109245;27;20074;-62
2023/03/25 00:28:36;;;;;;;5.60;3.13;;;16.20;1.00;;;;;;5109547;28;20393;-62
2023/03/25 00:31:07;;;;;;;6.15;3.35;;;16.20;1.00;;;;;;5107605;27;20020;-62
2023/03/25 00:33:34;;;;;;;5.53;3.25;;;16.20;1.00;;;;;;5106101;28;20078;-62
2023/03/25 00:36:00;;;;;;;7.70;3.63;;;16.30;1.00;;;;;;5112110;27;20557;-62
2023/03/25 00:38:33;;;;;;;5.70;3.30;;;16.30;1.00;;;;;;5083029;28;20022;-62
2023/03/25 00:41:09;;;;;;;7.85;3.00;;;16.30;1.00;;;;;;5098020;28;20048;-62
2023/03/25 00:43:35;;;;;;;4.38;2.85;;;16.30;1.00;;;;;;5112915;28;20027;-62
2023/03/25 00:46:01;;;;;;;8.38;2.90;;;16.20;1.00;;;;;;5103493;27;20448;-62
2023/03/25 00:48:26;;;;;;;5.20;2.92;;;16.10;1.00;;;;;;5107733;28;20492;-62
2023/03/25 00:50:52;;;;;;;6.15;3.40;;;16.10;1.00;;;;;;5108550;27;20996;-62
2023/03/25 00:53:18;;;;;;;7.65;3.60;;;16.00;1.00;;;;;;5112254;27;20038;-62
2023/03/25 00:55:43;;;;;;;4.28;3.25;;;16.00;1.00;;;;;;5103404;28;20036;-62
2023/03/25 00:58:09;;;;;;;6.35;3.40;;;16.00;1.00;;;;;;5113823;27;20110;-62
2023/03/25 01:00:35;;;;;;;4.10;3.30;;;15.90;1.00;;;;;;5110139;28;20023;-65
2023/03/25 01:03:02;;;;;;;6.22;2.92;;;15.90;1.00;;;;;;5113497;27;20380;-62
2023/03/25 01:05:29;;;;;;;5.60;3.08;;;15.90;1.00;;;;;;5115089;27;20499;-62
2023/03/25 01:07:55;;;;;;;7.28;3.40;;;15.90;1.00;;;;;;5125459;27;20063;-62
2023/03/25 01:10:21;;;;;;;7.05;3.08;;;15.90;1.00;;;;;;5116898;27;20066;-62
2023/03/25 01:12:47;;;;;;;5.13;3.00;;;15.90;1.00;;;;;;5113418;28;20035;-62
2023/03/25 01:15:13;;;;;;;6.07;3.25;;;15.80;1.00;;;;;;5109124;27;20027;-62
2023/03/25 01:17:39;;;;;;;6.25;2.85;;;15.80;1.00;;;;;;5113394;28;20024;-62
2023/03/25 01:20:05;;;;;;;3.08;2.78;;;15.80;1.00;;;;;;5116449;27;20031;-62
2023/03/25 01:22:31;;;;;;;3.83;3.13;;;15.80;1.00;;;;;;5104564;28;20027;-62
2023/03/25 01:24:56;;;;;;;7.32;3.60;;;15.80;1.00;;;;;;5115509;28;20110;-62
2023/03/25 01:27:23;;;;;;;4.85;2.97;;;15.80;1.00;;;;;;5113358;28;20036;-62
2023/03/25 01:29:49;;;;;;;7.50;3.10;;;15.70;1.00;;;;;;5105480;28;20540;-62
2023/03/25 01:32:15;;;;;;;10.48;3.47;;;15.60;1.00;;;;;;5116864;28;20031;-63
2023/03/25 01:34:41;;;;;;;4.80;2.63;;;15.70;1.00;;;;;;5112460;28;20058;-62
2023/03/25 01:37:08;;;;;;;5.70;3.13;;;15.70;1.00;;;;;;5094000;28;20028;-62
2023/03/25 01:39:35;;;;;;;5.68;2.58;;;15.70;1.00;;;;;;5108409;28;20047;-62
2023/03/25 01:42:01;;;;;;;4.68;3.05;;;15.70;1.00;;;;;;5117419;28;20069;-62
2023/03/25 01:44:28;;;;;;;8.27;3.00;;;15.80;1.00;;;;;;5115881;28;20027;-62
2023/03/25 01:46:54;;;;;;;4.10;2.45;;;15.90;1.00;;;;;;5119500;28;20035;-62
2023/03/25 01:49:28;;;;;;;5.20;3.03;;;15.90;1.00;;;;;;5115254;28;20072;-62
2023/03/25 01:51:58;;;;;;;7.93;3.10;;;15.80;1.00;;;;;;5120513;28;20477;-62
2023/03/25 01:54:26;;;;;;;6.93;2.80;;;15.90;1.00;;;;;;5115883;28;20038;-62
2023/03/25 01:56:52;;;;;;;4.93;2.60;;;15.90;1.00;;;;;;5097618;28;20027;-62
2023/03/25 01:59:23;;;;;;;3.67;3.05;;;16.00;1.00;;;;;;5110288;28;20064;-62
2023/03/25 02:01:50;;;;;;;4.28;3.08;;;16.00;1.00;;;;;;5111843;28;20015;-62
2023/03/25 02:04:26;;;;;;;5.53;2.80;;;16.00;1.00;;;;;;5111470;28;20039;-62
2023/03/25 02:06:53;;;;;;;4.10;2.75;;;16.00;1.00;;;;;;5120473;28;20082;-62
2023/03/25 02:09:23;;;;;;;7.18;3.40;;;16.00;1.00;;;;;;5106557;28;20035;-62
2023/03/25 02:11:49;;;;;;;6.68;2.83;;;16.00;1.00;;;;;;5123452;28;20476;-62
2023/03/25 02:14:20;;;;;;;5.07;2.40;;;16.00;1.00;;;;;;5113807;28;20023;-63
2023/03/25 02:17:15;;;;;;;4.93;2.80;;;15.90;1.00;;;;;;5130045;27;20011;-62
2023/03/25 02:19:41;;;;;;;;;;;15.90;1.00;;;;;;5116441;28;20357;-62
2023/03/25 02:22:24;;;;;;;4.85;2.22;;;15.90;1.00;;;;;;5115685;27;19915;-62
2023/03/25 02:25:00;;;;;;;3.80;2.53;;;15.80;1.00;;;;;;5109441;27;20016;-62
2023/03/25 02:27:51;;;;;;;6.03;2.95;;;15.80;1.00;;;;;;5116850;27;20419;-62
2023/03/25 02:30:35;;;;;;;6.15;2.60;;;15.90;1.00;;;;;;5104664;28;20385;-62
2023/03/25 02:33:25;;;;;;;5.30;3.00;;;15.80;1.00;;;;;;5113858;27;20043;-62
2023/03/25 02:35:59;;;;;;;8.05;2.58;;;15.90;1.00;;;;;;5121976;27;20151;-63
2023/03/25 02:39:10;;;;;;;6.10;2.15;;;15.90;1.00;;;;;;5120866;27;20024;-62
2023/03/25 02:41:41;;;;;;;4.88;2.60;;;15.90;1.00;;;;;;5013124;28;20066;-62
2023/03/25 02:44:15;;;;;;;9.40;2.92;;;15.90;1.00;;;;;;5092964;27;20043;-63
2023/03/25 02:46:47;;;;;;;4.63;2.50;;;15.90;1.00;;;;;;5123099;27;20028;-63
2023/03/25 02:49:43;;;;;;;4.78;3.08;;;15.80;1.00;;;;;;5113829;27;20344;-62
2023/03/25 02:52:10;;;;;;;;;;;15.80;1.00;;;;;;5083525;28;20040;-62
2023/03/25 02:54:40;;;;;;;5.82;2.67;;;15.70;1.00;;;;;;5119090;27;19912;-62
2023/03/25 02:57:08;;;;;;;5.72;2.95;;;15.70;1.00;;;;;;5109326;28;20035;-62
2023/03/25 02:59:37;;;;;;;4.15;2.65;;;15.60;1.00;;;;;;5128596;27;20200;-63
2023/03/25 03:02:07;;;;;;;7.75;2.45;;;15.50;1.00;;;;;;5122814;27;20032;-62
2023/03/25 03:04:48;;;;;;;4.88;2.75;;;15.40;1.00;;;;;;5117897;27;20514;-62
2023/03/25 03:07:28;;;;;;;7.78;3.00;;;15.40;1.00;;;;;;5118617;27;20035;-62
2023/03/25 03:10:18;;;;;;;4.38;2.85;;;15.50;1.00;;;;;;5107412;27;20361;-63
2023/03/25 03:13:11;;;;;;;6.60;2.88;;;15.50;1.00;;;;;;5116004;27;20035;-62
2023/03/25 03:15:52;;;;;;;5.72;3.45;;;15.50;1.00;;;;;;5108190;27;20036;-63
2023/03/25 03:18:33;;;;;;;6.63;2.67;;;15.50;1.00;;;;;;5101653;28;20032;-62
2023/03/25 03:21:05;;;;;;;6.22;2.40;;;15.40;1.00;;;;;;5104247;27;20067;-63
2023/03/25 03:23:47;;;;;;;6.47;2.58;;;15.40;1.00;;;;;;5102620;28;20023;-62
2023/03/25 03:26:32;;;;;;;6.75;3.05;;;15.40;1.00;;;;;;5116400;27;20023;-62
2023/03/25 03:29:10;;;;;;;5.45;2.78;;;15.40;1.00;;;;;;5114629;28;20423;-62
2023/03/25 03:31:53;;;;;;;3.38;2.63;;;15.40;1.00;;;;;;5112852;28;20074;-62
2023/03/25 03:34:41;;;;;;;8.25;3.08;;;15.40;1.00;;;;;;5112830;28;20058;-62
2023/03/25 03:37:10;;;;;;;10.27;2.95;;;15.30;1.00;;;;;;5101137;28;20027;-62
2023/03/25 03:39:38;;;;;;;5.22;3.05;;;15.40;1.00;;;;;;5115409;27;20031;-62
2023/03/25 03:42:29;;;;;;;4.78;2.78;;;15.30;1.00;;;;;;5115911;27;20533;-62
2023/03/25 03:45:01;;;;;;;6.28;3.25;;;15.40;1.00;;;;;;5124428;27;20486;-62
2023/03/25 03:47:35;;;;;;;7.95;2.97;;;15.30;1.00;;;;;;5115227;28;20135;-62
2023/03/25 03:50:09;;;;;;;5.47;3.03;;;15.30;1.00;;;;;;5126400;27;20031;-63
2023/03/25 03:52:46;;;;;;;6.30;2.70;;;15.30;1.00;;;;;;5115033;28;20028;-62
2023/03/25 03:55:21;;;;;;;5.63;3.42;;;15.40;1.00;;;;;;5123321;27;20023;-63
2023/03/25 03:57:52;;;;;;;8.43;3.00;;;15.30;1.00;;;;;;5096484;28;20016;-63
2023/03/25 04:00:35;;;;;;;6.57;3.38;;;15.30;1.00;;;;;;5118115;27;20031;-63
2023/03/25 04:03:13;;;;;;;6.75;3.42;;;15.30;1.00;;;;;;5104342;27;20026;-62
2023/03/25 04:05:42;;;;;;;8.70;3.50;;;15.20;1.00;;;;;;5117971;27;20019;-62
2023/03/25 04:08:31;;;;;;;5.47;3.38;;;15.20;1.00;;;;;;5123220;27;20071;-62
2023/03/25 04:11:08;;;;;;;8.27;3.30;;;15.20;1.00;;;;;;5102741;27;20019;-62
2023/03/25 04:13:40;;;;;;;7.70;4.07;;;15.20;1.00;;;;;;5122176;27;20032;-62
2023/03/25 04:16:06;;;;;;;6.18;3.40;;;15.20;1.00;;;;;;5105382;28;20067;-62
2023/03/25 04:18:35;;;;;;;4.72;3.50;;;15.20;1.00;;;;;;5115811;27;20939;-62
2023/03/25 04:21:00;;;;;;;7.15;3.92;;;15.10;1.00;;;;;;5116554;27;20098;-62
2023/03/25 04:23:30;;;;;;;6.80;3.67;;;15.10;1.00;;;;;;5114637;27;20067;-62
2023/03/25 04:26:01;;;;;;;7.28;3.80;;;15.00;1.00;;;;;;5117943;27;20488;-62
2023/03/25 04:28:27;;;;;;;7.50;3.90;;;15.10;1.00;;;;;;5111530;28;20028;-62
2023/03/25 04:30:54;;;;;;;7.45;4.18;;;15.10;1.00;;;;;;5121684;27;20030;-63
2023/03/25 04:33:24;;;;;;;6.15;3.85;;;15.10;1.00;;;;;;5110460;28;20048;-62
2023/03/25 04:35:50;;;;;;;5.75;3.90;;;15.00;1.00;;;;;;5114277;27;20023;-62
2023/03/25 04:38:19;;;;;;;6.75;4.72;;;15.00;1.00;;;;;;5113459;28;20129;-62
2023/03/25 04:41:30;;;;;;;5.05;3.35;;;15.10;1.00;;;;;;5094522;28;20045;-62
2023/03/25 04:43:57;;;;;;;8.23;3.65;;;15.10;1.00;;;;;;5097738;27;20027;-62
2023/03/25 04:46:22;;;;;;;8.93;4.30;;;15.10;1.00;;;;;;5099101;28;20489;-62
2023/03/25 04:48:48;;;;;;;7.30;3.65;;;15.00;1.00;;;;;;5107157;27;20098;-63
2023/03/25 04:51:14;;;;;;;7.72;4.63;;;15.00;1.00;;;;;;5113774;28;20027;-63
2023/03/25 04:53:41;;;;;;;6.60;4.13;;;15.00;1.00;;;;;;5118491;27;20046;-63
2023/03/25 04:56:14;;;;;;;7.78;3.80;;;15.00;1.00;;;;;;5115053;28;20051;-62
2023/03/25 04:58:41;;;;;;;6.53;4.30;;;14.90;1.00;;;;;;5111847;28;20023;-61
2023/03/25 05:01:15;;;;;;;7.72;4.15;;;15.00;1.00;;;;;;5113653;28;20027;-63
2023/03/25 05:03:40;;;;;;;7.38;4.10;;;15.00;1.00;;;;;;5112904;28;20028;-63
2023/03/25 05:06:06;;;;;;;7.55;4.28;;;15.00;1.00;;;;;;5116327;27;20027;-61
2023/03/25 05:08:32;;;;;;;7.53;4.57;;;14.90;1.00;;;;;;5113640;28;20044;-61
2023/03/25 05:10:58;;;;;;;10.35;5.38;;;14.90;1.00;;;;;;5124342;27;20031;-61
2023/03/25 05:13:23;;;;;;;7.65;5.35;;;14.90;1.00;;;;;;5113343;28;20027;-61
2023/03/25 05:15:49;;;;;;;8.05;5.13;;;14.90;1.00;;;;;;5119872;27;20031;-61
2023/03/25 05:18:16;;;;;;;8.70;4.47;;;14.90;1.00;;;;;;5121816;27;20027;-61
2023/03/25 05:20:43;;;;;;;6.25;4.60;;;14.80;1.00;;;;;;5113298;27;20376;-61
2023/03/25 05:23:14;;;;;;;5.72;3.83;;;14.80;1.00;;;;;;5113422;28;20034;-61
2023/03/25 05:25:41;;;;;;;8.90;5.28;;;14.90;1.00;;;;;;5122826;27;20035;-61
2023/03/25 05:28:12;;;;;;;9.75;5.25;;;14.80;1.00;;;;;;5098783;28;20466;-61
2023/03/25 05:30:40;;;;;;;9.10;5.07;;;14.90;1.00;;;;;;5117887;28;20027;-62
2023/03/25 05:33:09;;;;;;;10.73;4.40;;;14.90;1.00;;;;;;5113012;28;20051;-61
2023/03/25 05:35:36;;;;;;;7.75;4.72;;;14.80;1.00;;;;;;5120293;28;20015;-61
2023/03/25 05:38:03;;;;;;;7.53;5.18;;;14.70;1.00;;;;;;5113169;28;20031;-61
2023/03/25 05:40:29;;;;;;;7.90;5.10;;;14.70;1.00;;;;;;5108633;28;20076;-61
2023/03/25 05:42:55;;;;;;;10.40;5.13;;;14.70;1.00;;;;;;5113191;28;20469;-61
2023/03/25 05:45:21;;;;;;;7.18;5.25;;;14.70;1.00;;;;;;5110952;28;20147;-61
2023/03/25 05:47:47;;;;;;;10.23;5.47;;;14.70;1.00;;;;;;5123424;28;20122;-61
2023/03/25 05:50:16;;;;;;;11.98;5.78;;;14.70;1.00;;;;;;5121183;27;20096;-61
2023/03/25 05:52:42;;;;;;;6.57;5.82;;;14.70;1.00;;;;;;5117184;28;20495;-62
2023/03/25 05:55:15;;;;;;;8.68;5.43;;;14.70;1.00;;;;;;5129511;27;20015;-61
2023/03/25 05:57:41;;;;;;;6.80;5.65;;;14.60;1.00;;;;;;5117310;28;20027;-61
2023/03/25 06:00:07;;;;;;;8.43;5.07;;;14.70;1.00;;;;;;5123116;27;20030;-62
2023/03/25 06:02:34;;;;;;;7.55;5.88;;;14.60;1.00;;;;;;5117273;27;20467;-62
2023/03/25 06:05:00;;;;;;;13.95;5.95;;;14.50;1.00;;;;;;5124683;27;20050;-61
2023/03/25 06:07:25;;;;;;;10.25;5.45;;;14.50;1.00;;;;;;5101084;28;20502;-61
2023/03/25 06:09:52;;;;;;;8.73;6.47;;;14.40;1.00;;;;;;5108250;27;20116;-61
2023/03/25 06:12:19;;;;;;;10.70;6.55;;;14.50;1.00;;;;;;5120767;27;20102;-62
2023/03/25 06:14:52;;;;;;;9.30;6.72;;;14.50;1.00;;;;;;5119489;27;20015;-62
2023/03/25 06:17:20;;;;;;;11.23;7.07;;;14.60;1.00;;;;;;5131480;27;20488;-61
2023/03/25 06:19:47;;;;;;;18.42;7.22;;;14.70;1.00;;;;;;5123448;27;20065;-62
2023/03/25 06:22:13;;;;;;;8.70;6.90;;;14.60;1.00;;;;;;5116382;27;20452;-62
2023/03/25 06:24:40;;;;;;;11.65;7.25;;;14.50;1.00;;;;;;5117685;27;20023;-62
2023/03/25 06:27:08;;;;;;;14.50;7.93;;;14.50;1.00;;;;;;5116680;28;20043;-61
2023/03/25 06:29:36;;;;;;;9.18;7.95;;;14.50;1.00;;;;;;5120403;27;20022;-61
2023/03/25 06:32:02;;;;;;;11.95;8.10;;;14.60;1.00;;;;;;5126220;27;20023;-62
2023/03/25 06:34:28;;;;;;;15.05;8.73;;;14.60;1.00;;;;;;5111854;27;20488;-61
2023/03/25 06:36:53;;;;;;;10.80;8.07;;;14.60;1.00;;;;;;5118095;27;20083;-62
2023/03/25 06:39:20;;;;;;;9.55;7.90;;;14.60;1.00;;;;;;5118335;27;20023;-62
2023/03/25 06:41:45;;;;;;;10.90;8.43;;;14.70;1.00;;;;;;5119587;27;20043;-62
2023/03/25 06:44:12;;;;;;;13.27;8.73;;;14.60;1.00;;;;;;5114374;27;20024;-61
2023/03/25 06:46:37;;;;;;;12.40;9.63;;;14.60;1.00;;;;;;5123924;27;20035;-62
2023/03/25 06:49:03;;;;;;;11.15;8.60;;;14.70;1.00;;;;;;5109412;28;20496;-62
2023/03/25 06:51:29;;;;;;;10.02;8.30;;;14.70;1.00;;;;;;5117560;27;20043;-62
2023/03/25 06:53:54;;;;;;;11.52;9.13;;;14.60;1.00;;;;;;5097373;27;20035;-62
2023/03/25 06:56:20;;;;;;;12.90;8.82;;;14.60;1.00;;;;;;5125887;27;20453;-62
2023/03/25 06:58:46;;;;;;;14.40;9.52;;;14.80;1.00;;;;;;5117013;27;20070;-61
2023/03/25 07:01:11;;;;;;;11.38;8.95;;;14.80;1.00;;;;;;5118886;27;20028;-62
2023/03/25 07:03:37;;;;;;;10.68;9.05;;;14.80;1.00;;;;;;5108489;28;20069;-62
2023/03/25 07:06:05;;;;;;;9.98;8.93;;;14.80;1.00;;;;;;5128528;27;20023;-62
2023/03/25 07:08:30;;;;;;;11.88;9.98;;;14.80;1.00;;;;;;5114632;28;20039;-62
2023/03/25 07:11:04;;;;;;;13.27;9.40;;;14.60;1.00;;;;;;5114422;28;20110;-62
2023/03/25 07:13:30;;;;;;;14.18;9.50;;;14.70;1.00;;;;;;5111162;28;20035;-62
2023/03/25 07:15:57;;;;;;;16.73;10.95;;;14.70;1.00;;;;;;5117610;27;20529;-62
2023/03/25 07:18:23;;;;;;;12.45;8.95;;;14.70;1.00;;;;;;5097131;28;20032;-62
2023/03/25 07:20:48;;;;;;;14.88;11.02;;;14.80;1.00;;;;;;5097053;28;20031;-62
2023/03/25 07:23:14;;;;;;;13.02;10.30;;;14.80;1.00;;;;;;5111041;27;20028;-62
2023/03/25 07:25:40;;;;;;;14.18;10.18;;;14.90;1.00;;;;;;5110652;27;20034;-62
2023/03/25 07:28:06;;;;;;;11.95;10.00;;;14.90;1.00;;;;;;5115074;27;20055;-62
2023/03/25 07:30:31;;;;;;;14.35;9.85;;;14.90;1.00;;;;;;5123876;27;20036;-62
2023/03/25 07:32:57;;;;;;;12.50;11.20;;;14.80;1.00;;;;;;5095805;28;20549;-61
2023/03/25 07:35:23;;;;;;;16.02;10.82;;;15.00;1.00;;;;;;5115263;28;20411;-62
2023/03/25 07:37:49;;;;;;;12.82;10.48;;;15.00;1.00;;;;;;5115492;28;20072;-62
2023/03/25 07:40:14;;;;;;;15.52;11.65;;;15.10;1.00;;;;;;5112119;27;20034;-62
2023/03/25 07:42:40;;;;;;;15.20;10.75;;;15.10;1.00;;;;;;5115371;28;20107;-62
2023/03/25 07:45:06;;;;;;;15.10;10.98;;;15.10;1.00;;;;;;5097446;28;20500;-62
2023/03/25 07:47:32;;;;;;;16.30;12.00;;;15.20;1.00;;;;;;5115237;28;20046;-62
2023/03/25 07:49:57;;;;;;;12.57;11.38;;;15.20;1.00;;;;;;5095021;28;20032;-62
2023/03/25 07:52:23;;;;;;;14.00;10.55;;;15.20;1.00;;;;;;5098160;28;20105;-62
2023/03/25 07:54:49;;;;;;;15.73;12.13;;;15.30;1.00;;;;;;5113739;27;20023;-63
2023/03/25 07:57:14;;;;;;;14.18;12.00;;;15.20;1.00;;;;;;5106100;27;20363;-62
2023/03/25 07:59:40;;;;;;;15.73;13.00;;;15.20;1.00;;;;;;5120125;27;20103;-62
2023/03/25 08:02:06;;;;;;;19.80;13.45;;;15.30;1.00;;;;;;5100129;28;20028;-62
2023/03/25 08:04:32;;;;;;;16.25;13.23;;;15.30;1.00;;;;;;5097147;28;20548;-62
2023/03/25 08:06:57;;;;;;;19.55;14.40;;;15.40;1.00;;;;;;5114540;28;20043;-62
2023/03/25 08:09:23;;;;;;;19.98;13.25;;;15.40;1.00;;;;;;5111903;27;20035;-62
2023/03/25 08:11:50;;;;;;;16.27;13.18;;;15.40;1.00;;;;;;5113985;27;20032;-62
2023/03/25 08:14:15;;;;;;;18.90;15.18;;;15.40;1.00;;;;;;5121453;27;20034;-62
2023/03/25 08:16:41;;;;;;;21.55;14.50;;;15.50;1.00;;;;;;5115332;27;20027;-62
2023/03/25 08:19:07;;;;;;;17.90;15.95;;;15.50;1.00;;;;;;5117964;27;20042;-62
2023/03/25 08:21:33;;;;;;;19.45;16.42;;;15.50;1.00;;;;;;5101355;28;20353;-62
2023/03/25 08:24:01;;;;;;;23.25;16.92;;;15.50;1.00;;;;;;5121749;27;20019;-62
2023/03/25 08:26:27;;;;;;;17.27;15.40;;;15.50;1.00;;;;;;5123810;27;20024;-62
2023/03/25 08:28:56;;;;;;;21.58;15.70;;;15.60;1.00;;;;;;5110589;27;20067;-62
2023/03/25 08:31:23;;;;;;;22.55;15.98;;;15.70;1.00;;;;;;5114460;27;20451;-62
2023/03/25 08:33:49;;;;;;;19.48;16.40;;;15.70;1.00;;;;;;5113891;28;20118;-62
2023/03/25 08:36:18;;;;;;;19.92;17.30;;;15.80;1.00;;;;;;5114307;27;20124;-53
2023/03/25 08:38:45;;;;;;;18.58;15.55;;;15.80;1.00;;;;;;5102925;27;20023;-51
2023/03/25 08:41:11;;;;;;;20.25;16.48;;;15.90;1.00;;;;;;5110896;27;20393;-54
2023/03/25 08:43:37;;;;;;;17.65;14.18;;;15.90;1.00;;;;;;5112755;27;20024;-55
2023/03/25 08:46:03;;;;;;;15.65;14.00;;;15.80;1.00;;;;;;5129216;27;20038;-50
2023/03/25 08:48:29;;;;;;;16.88;13.70;;;15.90;1.00;;;;;;5118062;27;20039;-55
2023/03/25 08:50:54;;;;;;;22.88;14.63;;;15.90;1.00;;;;;;5120570;27;20120;-53
2023/03/25 08:53:20;;;;;;;14.80;13.30;;;15.90;1.00;;;;;;5120129;27;20027;-55
2023/03/25 08:55:49;;;;;;;18.48;14.70;;;15.90;1.00;;;;;;5107161;28;20052;-52
2023/03/25 08:58:14;;;;;;;16.92;14.68;;;16.00;1.00;;;;;;5105604;28;20032;-55
2023/03/25 09:00:40;;;;;;;20.35;15.32;;;16.00;1.00;;;;;;5117064;27;20030;-52
2023/03/25 09:03:06;;;;;;;18.30;15.02;;;16.10;1.00;;;;;;5120101;27;20038;-51
2023/03/25 09:05:32;;;;;;;16.42;14.77;;;16.10;1.00;;;;;;5121999;27;20110;-52
2023/03/25 09:07:57;;;;;;;18.35;15.35;;;16.20;1.00;;;;;;5116648;27;20400;-53
2023/03/25 09:10:23;;;;;;;16.42;14.27;;;16.20;1.00;;;;;;5112750;28;20103;-54
2023/03/25 09:12:49;;;;;;;18.42;14.05;;;16.20;1.00;;;;;;5094494;28;20027;-50
2023/03/25 09:15:14;;;;;;;16.42;14.15;;;16.30;1.00;;;;;;5111283;27;20053;-50
2023/03/25 09:17:41;;;;;;;17.00;14.90;;;16.30;1.00;;;;;;5093299;28;20043;-51
2023/03/25 09:20:07;;;;;;;19.27;17.27;;;16.30;1.00;;;;;;5109665;27;20020;-54
2023/03/25 09:22:34;;;;;;;15.82;14.05;;;16.40;1.00;;;;;;5115484;28;20088;-52
2023/03/25 09:25:00;;;;;;;17.17;15.27;;;16.40;1.00;;;;;;5113336;28;20065;-53
2023/03/25 09:27:26;;;;;;;17.45;13.70;;;16.40;1.00;;;;;;5116541;28;20471;-53
2023/03/25 09:29:51;;;;;;;14.65;12.13;;;16.50;1.00;;;;;;5116749;28;20464;-56
2023/03/25 09:32:18;;;;;;;16.35;12.63;;;16.50;1.00;;;;;;5117187;28;20103;-55
2023/03/25 09:34:44;;;;;;;16.15;14.45;;;16.60;1.00;;;;;;5094870;28;20754;-51
2023/03/25 09:37:10;;;;;;;15.70;13.48;;;16.70;1.00;;;;;;5108749;28;20561;-56
2023/03/25 09:39:35;;;;;;;27.27;14.80;;;16.70;1.00;;;;;;5100927;28;20027;-55
2023/03/25 09:42:25;;;;;;;14.88;12.50;;;16.80;1.00;;;;;;5096129;28;20481;-53
2023/03/25 09:44:55;;;;;;;15.32;12.55;;;16.80;1.00;;;;;;5121833;28;20035;-55
2023/03/25 09:47:23;;;;;;;15.25;11.98;;;16.80;1.00;;;;;;5107750;28;20489;-54
2023/03/25 09:49:55;;;;;;;14.55;12.43;;;17.00;1.00;;;;;;5114544;28;20019;-54
2023/03/25 09:53:00;;;;;;;16.92;13.60;;;17.00;1.00;;;;;;5113434;28;20476;-54
2023/03/25 09:55:31;;;;;;;15.48;13.77;;;17.10;1.00;;;;;;5121568;28;20027;-55
2023/03/25 09:58:25;;;;;;;20.13;13.70;;;17.20;1.00;;;;;;5105918;28;20028;-58
2023/03/25 10:01:02;;;;;;;15.82;12.95;;;17.10;1.00;;;;;;5111103;28;20490;-57
2023/03/25 10:03:34;;;;;;;13.80;12.32;;;17.10;1.00;;;;;;5118309;28;20034;-57
2023/03/25 10:06:02;;;;;;;19.58;14.82;;;17.20;1.00;;;;;;5117668;28;20026;-58
2023/03/25 10:08:46;;;;;;;19.23;14.13;;;17.20;1.00;;;;;;5094584;28;20523;-58
2023/03/25 10:11:26;;;;;;;16.38;14.57;;;17.20;1.00;;;;;;5112617;28;20098;-57
2023/03/25 10:14:08;;;;;;;17.20;14.88;;;17.40;1.00;;;;;;5117571;28;20023;-57
2023/03/25 10:17:15;;;;;;;22.23;16.60;;;17.40;1.00;;;;;;5099456;28;20080;-57
2023/03/25 10:20:15;;;;;;;18.85;16.92;;;17.40;1.00;;;;;;5101213;28;20059;-57
2023/03/25 10:22:55;;;;;;;18.85;14.48;;;17.40;1.00;;;;;;5104863;28;20028;-57
2023/03/25 10:25:25;;;;;;;18.48;13.70;;;17.50;1.00;;;;;;5123890;28;20027;-58
2023/03/25 10:27:52;;;;;;;18.08;14.25;;;17.60;1.00;;;;;;5106678;28;20039;-58
2023/03/25 10:30:22;;;;;;;18.73;14.52;;;17.60;1.00;;;;;;5110056;28;20404;-58
2023/03/25 10:32:57;;;;;;;24.35;16.63;;;17.70;1.00;;;;;;5098431;28;20066;-58
2023/03/25 10:35:34;;;;;;;16.23;14.52;;;17.60;1.00;;;;;;5094397;28;20050;-59
2023/03/25 10:38:06;;;;;;;17.17;12.95;;;17.60;1.00;;;;;;5112148;28;20038;-59
2023/03/25 10:40:43;;;;;;;14.07;11.68;;;17.80;1.00;;;;;;5111535;28;20023;-60
2023/03/25 10:43:17;;;;;;;13.10;10.07;;;17.80;1.00;;;;;;5111985;28;20115;-50
2023/03/25 10:45:45;;;;;;;;;;;17.90;1.00;;;;;;5107967;28;20380;-47
2023/03/25 10:48:18;;;;;;;10.05;9.00;;;18.00;1.00;;;;;;5101612;28;19915;-53
2023/03/25 10:50:45;;;;;;;11.93;8.27;;;17.90;1.00;;;;;;5101813;28;20354;-60
2023/03/25 10:53:25;;;;;;;10.70;7.75;;;18.00;1.00;;;;;;5112810;28;20448;-55
2023/03/25 10:56:01;;;;;;;8.35;7.55;;;18.20;1.00;;;;;;5114118;28;20088;-66
2023/03/25 10:58:28;;;;;;;8.40;6.65;;;18.20;1.00;;;;;;5114912;28;20103;-61
2023/03/25 11:00:53;;;;;;;6.82;5.47;;;18.20;1.00;;;;;;5096719;28;20495;-68
2023/03/25 11:03:25;;;;;;;5.32;4.80;;;18.40;1.00;;;;;;5115003;28;20020;-69
2023/03/25 11:05:52;;;;;;;7.35;4.05;;;18.40;1.00;;;;;;5114040;28;20027;-69
2023/03/25 11:08:20;;;;;;;7.03;4.88;;;18.50;1.00;;;;;;5113308;28;20046;-69
2023/03/25 11:10:54;;;;;;;9.52;7.00;;;18.50;1.00;;;;;;5109351;28;20035;-61
2023/03/25 11:13:24;;;;;;;9.90;8.60;;;18.50;1.00;;;;;;5094074;28;20495;-62
2023/03/25 11:16:00;;;;;;;10.30;8.75;;;18.50;1.00;;;;;;5093508;28;20515;-61
2023/03/25 11:18:27;;;;;;;12.07;9.05;;;18.70;1.00;;;;;;5114711;28;20022;-66
2023/03/25 11:21:01;;;;;;;12.07;8.43;;;18.60;1.00;;;;;;5112448;28;20023;-66
2023/03/25 11:23:35;;;;;;;9.65;8.25;;;18.60;1.00;;;;;;5109318;28;20443;-66
2023/03/25 11:26:05;;;;;;;9.43;7.90;;;18.70;1.00;;;;;;5107760;28;20024;-66
2023/03/25 11:28:40;;;;;;;10.50;6.82;;;18.80;1.00;;;;;;5112413;28;20317;-66
2023/03/25 11:31:11;;;;;;;;;;;18.90;1.00;;;;;;5105193;28;20028;-62
2023/03/25 11:33:37;;;;;;;7.35;5.30;;;19.10;1.00;;;;;;5109089;28;19916;-64
2023/03/25 11:36:10;;;;;;;5.68;4.93;;;19.10;1.00;;;;;;5114192;28;20028;-55
2023/03/25 11:38:37;;;;;;;7.45;4.68;;;19.30;1.00;;;;;;5108124;28;20016;-57
2023/03/25 11:41:04;;;;;;;5.70;3.38;;;19.30;1.00;;;;;;5106834;28;20028;-60
2023/03/25 11:43:35;;;;;;;6.38;3.50;;;19.40;1.00;;;;;;5092235;28;20385;-59
2023/03/25 11:46:15;;;;;;;5.90;4.32;;;19.30;1.00;;;;;;5106827;28;20472;-60
2023/03/25 11:48:43;;;;;;;5.40;4.57;;;19.40;1.00;;;;;;5095220;28;20040;-62
2023/03/25 11:51:14;;;;;;;5.00;1.67;;;19.30;1.00;;;;;;5111619;28;20065;-60
2023/03/25 11:53:46;;;;;;;4.68;2.15;;;19.60;1.00;;;;;;5107100;28;20016;-53
2023/03/25 11:56:19;;;;;;;3.00;2.20;;;19.60;1.00;;;;;;5111024;28;20051;-52
2023/03/25 11:58:46;;;;;;;3.10;2.00;;;19.70;1.00;;;;;;5113980;28;20019;-51
2023/03/25 12:01:26;;;;;;;2.28;1.10;;;19.80;1.00;;;;;;5106100;28;20074;-53
2023/03/25 12:04:06;;;;;;;2.17;1.23;;;19.90;1.00;;;;;;5102094;28;20036;-53
2023/03/25 12:06:32;;;;;;;2.80;1.90;;;20.00;1.00;;;;;;5109669;28;20031;-56
2023/03/25 12:08:59;;;;;;;4.80;2.03;;;20.20;1.00;;;;;;5109061;28;20032;-56
2023/03/25 12:11:39;;;;;;;1.83;1.25;;;20.30;1.00;;;;;;5111748;28;20131;-57
2023/03/25 12:14:46;;;;;;;4.38;1.10;;;20.40;1.00;;;;;;5108460;27;20537;-48
2023/03/25 12:17:11;;;;;;;2.53;1.45;;;20.40;1.00;;;;;;5065751;28;20042;-50
2023/03/25 12:19:52;;;;;;;3.17;1.25;;;20.70;1.00;;;;;;5114808;27;20027;-49
2023/03/25 12:22:18;;;;;;;2.85;1.60;;;20.80;1.00;;;;;;5104594;27;20039;-49
2023/03/25 12:25:06;;;;;;;2.28;1.60;;;20.80;1.00;;;;;;5125191;27;20027;-49
2023/03/25 12:27:35;;;;;;;1.40;1.30;;;20.90;1.00;;;;;;5123982;27;20044;-49
2023/03/25 12:30:31;;;;;;;1.52;1.42;;;21.10;1.00;;;;;;5113287;27;20034;-50
2023/03/25 12:33:37;;;;;;;2.05;1.50;;;21.40;1.00;;;;;;5117563;27;20031;-53
2023/03/25 12:36:23;;;;;;;1.90;1.58;;;21.50;1.00;;;;;;5095470;27;20044;-49
2023/03/25 12:39:08;;;;;;;1.23;1.13;;;21.90;1.00;;;;;;5101664;27;20054;-48
2023/03/25 12:41:36;;;;;;;2.65;1.33;;;24.10;1.00;;;;;;5117026;27;20029;-53
2023/03/25 12:44:11;;;;;;;2.05;1.48;;;31.60;99.90;;;;;;5097483;28;20020;-49
2023/03/25 12:46:59;;;;;;;1.50;1.30;;;36.00;99.90;;;;;;5106900;27;20036;-50
2023/03/25 12:49:39;;;;;;;1.40;1.30;;;36.60;99.90;;;;;;5107014;27;20031;-55
2023/03/25 12:52:16;;;;;;;1.80;1.70;;;40.20;99.90;;;;;;5118153;27;20080;-51
2023/03/25 12:55:31;;;;;;;1.75;1.42;;;40.70;99.90;;;;;;5112957;27;20393;-51
2023/03/25 12:58:03;;;;;;;1.80;1.70;;;42.30;99.90;;;;;;5084854;27;20036;-50
2023/03/25 13:00:40;;;;;;;4.07;1.70;;;43.20;99.90;;;;;;5116770;27;20107;-48
2023/03/25 13:03:26;;;;;;;2.40;1.60;;;44.80;99.90;;;;;;5112269;28;20043;-51
2023/03/25 13:06:01;;;;;;;2.28;2.17;;;44.70;99.90;;;;;;5119677;27;20469;-54
2023/03/25 13:08:48;;;;;;;2.17;2.08;;;44.70;99.90;;;;;;5116163;27;20381;-56
2023/03/25 13:11:22;;;;;;;2.55;2.35;;;45.20;99.90;;;;;;5109443;27;20043;-52